createdAt,value
2023-04-02T00:01:39.594Z,100.00
2023-04-02T00:04:22.126Z,100.00
2023-04-02T00:06:54.212Z,100.00
2023-04-02T00:09:29.896Z,100.00
2023-04-02T00:11:58.122Z,100.00
2023-04-02T00:14:27.207Z,100.00
2023-04-02T00:16:55.931Z,100.00
2023-04-02T00:19:26.541Z,100.00
2023-04-02T00:21:54.333Z,100.00
2023-04-02T00:24:22.859Z,100.00
2023-04-02T00:26:52.508Z,100.00
2023-04-02T00:29:20.712Z,100.00
2023-04-02T00:31:49.763Z,100.00
2023-04-02T00:34:19.530Z,100.00
2023-04-02T00:36:47.783Z,100.00
2023-04-02T00:39:18.390Z,100.00
2023-04-02T00:41:47.792Z,100.00
2023-04-02T00:44:21.754Z,100.00
2023-04-02T00:46:50.147Z,100.00
2023-04-02T00:49:22.522Z,100.00
2023-04-02T00:51:53.303Z,100.00
2023-04-02T00:54:22.050Z,100.00
2023-04-02T00:56:50.566Z,100.00
2023-04-02T00:59:21.523Z,100.00
2023-04-02T01:01:54.335Z,100.00
2023-04-02T01:04:36.525Z,100.00
2023-04-02T01:07:06.555Z,100.00
2023-04-02T01:09:45.413Z,100.00
2023-04-02T01:12:21.587Z,100.00
2023-04-02T01:14:56.790Z,100.00
2023-04-02T01:17:30.584Z,100.00
2023-04-02T01:20:09.289Z,100.00
2023-04-02T01:22:41.840Z,100.00
2023-04-02T01:25:15.491Z,100.00
2023-04-02T01:27:47.117Z,100.00
2023-04-02T01:30:16.277Z,100.00
2023-04-02T01:32:44.391Z,100.00
2023-04-02T01:35:12.882Z,100.00
2023-04-02T01:37:44.903Z,100.00
2023-04-02T01:40:24.495Z,100.00
2023-04-02T01:42:56.480Z,100.00
2023-04-02T01:45:25.784Z,100.00
2023-04-02T01:47:53.586Z,100.00
2023-04-02T01:50:31.572Z,100.00
2023-04-02T01:53:00.977Z,100.00
2023-04-02T01:55:32.943Z,100.00
2023-04-02T01:58:01.441Z,100.00
2023-04-02T02:00:32.652Z,100.00
2023-04-02T02:03:00.947Z,100.00
2023-04-02T02:05:29.280Z,100.00
2023-04-02T02:07:57.669Z,100.00
2023-04-02T02:10:27.637Z,100.00
2023-04-02T02:12:55.619Z,100.00
2023-04-02T02:15:25.033Z,100.00
2023-04-02T02:17:56.462Z,100.00
2023-04-02T02:20:24.292Z,100.00
2023-04-02T02:22:52.424Z,100.00
2023-04-02T02:25:21.267Z,100.00
2023-04-02T02:27:56.902Z,100.00
2023-04-02T02:30:26.315Z,100.00
2023-04-02T02:32:59.650Z,100.00
2023-04-02T02:35:30.011Z,100.00
2023-04-02T02:38:01.004Z,100.00
2023-04-02T02:40:31.163Z,100.00
2023-04-02T02:43:01.026Z,100.00
2023-04-02T02:45:31.044Z,100.00
2023-04-02T02:48:00.859Z,100.00
2023-04-02T02:50:31.678Z,100.00
2023-04-02T02:53:00.449Z,100.00
2023-04-02T02:55:32.641Z,100.00
2023-04-02T02:58:04.461Z,100.00
2023-04-02T03:00:33.793Z,100.00
2023-04-02T03:03:05.284Z,100.00
2023-04-02T03:05:33.307Z,100.00
2023-04-02T03:08:02.565Z,100.00
2023-04-02T03:10:35.372Z,100.00
2023-04-02T03:13:08.496Z,100.00
2023-04-02T03:15:39.696Z,100.00
2023-04-02T03:18:11.819Z,100.00
2023-04-02T03:20:42.041Z,100.00
2023-04-02T03:23:18.374Z,100.00
2023-04-02T03:25:50.600Z,100.00
2023-04-02T03:28:23.531Z,100.00
2023-04-02T03:30:53.653Z,100.00
2023-04-02T03:33:25.015Z,100.00
2023-04-02T03:35:56.288Z,100.00
2023-04-02T03:38:26.506Z,100.00
2023-04-02T03:40:59.750Z,100.00
2023-04-02T03:43:29.699Z,100.00
2023-04-02T03:45:59.543Z,100.00
2023-04-02T03:48:32.477Z,100.00
2023-04-02T03:51:01.525Z,100.00
2023-04-02T03:53:32.232Z,100.00
2023-04-02T03:56:00.827Z,100.00
2023-04-02T03:58:30.039Z,100.00
2023-04-02T04:01:00.995Z,100.00
2023-04-02T04:03:32.773Z,100.00
2023-04-02T04:06:01.946Z,100.00
2023-04-02T04:08:32.901Z,100.00
2023-04-02T04:11:04.500Z,100.00
2023-04-02T04:13:36.210Z,100.00
2023-04-02T04:16:07.294Z,100.00
2023-04-02T04:18:44.837Z,100.00
2023-04-02T04:21:15.921Z,100.00
2023-04-02T04:23:50.409Z,100.00
2023-04-02T04:26:24.635Z,100.00
2023-04-02T04:28:59.809Z,100.00
2023-04-02T04:31:30.923Z,100.00
2023-04-02T04:34:04.528Z,100.00
2023-04-02T04:36:35.578Z,100.00
2023-04-02T04:39:08.047Z,100.00
2023-04-02T04:41:37.844Z,100.00
2023-04-02T04:44:07.960Z,100.00
2023-04-02T04:46:39.382Z,100.00
2023-04-02T04:49:11.118Z,100.00
2023-04-02T04:51:40.965Z,100.00
2023-04-02T04:54:13.137Z,100.00
2023-04-02T04:56:41.271Z,100.00
2023-04-02T04:59:16.718Z,100.00
2023-04-02T05:01:47.671Z,100.00
2023-04-02T05:04:18.695Z,100.00
2023-04-02T05:06:51.114Z,100.00
2023-04-02T05:09:21.790Z,100.00
2023-04-02T05:11:53.048Z,100.00
2023-04-02T05:14:24.938Z,100.00
2023-04-02T05:16:54.333Z,100.00
2023-04-02T05:19:26.701Z,100.00
2023-04-02T05:21:57.760Z,100.00
2023-04-02T05:24:41.694Z,100.00
2023-04-02T05:27:14.855Z,100.00
2023-04-02T05:29:44.445Z,100.00
2023-04-02T05:32:15.071Z,100.00
2023-04-02T05:34:47.460Z,100.00
2023-04-02T05:37:17.995Z,100.00
2023-04-02T05:39:46.126Z,100.00
2023-04-02T05:42:17.121Z,100.00
2023-04-02T05:44:50.293Z,100.00
2023-04-02T05:47:21.691Z,100.00
2023-04-02T05:49:52.009Z,100.00
2023-04-02T05:52:23.254Z,100.00
2023-04-02T05:54:54.493Z,100.00
2023-04-02T05:57:39.605Z,100.00
2023-04-02T06:00:14.856Z,100.00
2023-04-02T06:02:45.134Z,100.00
2023-04-02T06:05:16.853Z,100.00
2023-04-02T06:07:46.524Z,100.00
2023-04-02T06:10:18.261Z,100.00
2023-04-02T06:12:48.573Z,100.00
2023-04-02T06:15:16.877Z,100.00
2023-04-02T06:17:47.928Z,100.00
2023-04-02T06:20:18.705Z,100.00
2023-04-02T06:22:48.498Z,100.00
2023-04-02T06:25:22.850Z,100.00
2023-04-02T06:27:51.589Z,100.00
2023-04-02T06:30:21.871Z,100.00
2023-04-02T06:32:49.690Z,100.00
2023-04-02T06:35:18.935Z,100.00
2023-04-02T06:37:47.641Z,100.00
2023-04-02T06:40:27.087Z,100.00
2023-04-02T06:42:59.729Z,100.00
2023-04-02T06:45:29.502Z,100.00
2023-04-02T06:47:58.652Z,100.00
2023-04-02T06:50:31.334Z,100.00
2023-04-02T06:53:00.917Z,100.00
2023-04-02T06:55:32.917Z,100.00
2023-04-02T06:58:00.624Z,100.00
2023-04-02T07:00:31.641Z,100.00
2023-04-02T07:03:01.204Z,100.00
2023-04-02T07:05:30.651Z,100.00
2023-04-02T07:07:58.442Z,100.00
2023-04-02T07:10:26.267Z,100.00
2023-04-02T07:12:53.903Z,100.00
2023-04-02T07:15:24.034Z,100.00
2023-04-02T07:17:53.311Z,100.00
2023-04-02T07:20:27.145Z,100.00
2023-04-02T07:22:56.633Z,100.00
2023-04-02T07:25:24.305Z,100.00
2023-04-02T07:27:52.466Z,100.00
2023-04-02T07:30:20.195Z,100.00
2023-04-02T07:32:47.977Z,100.00
2023-04-02T07:35:15.737Z,100.00
2023-04-02T07:37:43.441Z,100.00
2023-04-02T07:40:17.624Z,100.00
2023-04-02T07:42:45.372Z,100.00
2023-04-02T07:45:13.643Z,100.00
2023-04-02T07:47:41.627Z,100.00
2023-04-02T07:50:10.634Z,100.00
2023-04-02T07:52:40.602Z,100.00
2023-04-02T07:55:08.851Z,100.00
2023-04-02T07:57:43.684Z,100.00
2023-04-02T08:00:13.396Z,100.00
2023-04-02T08:02:41.329Z,100.00
2023-04-02T08:05:10.520Z,100.00
2023-04-02T08:07:39.079Z,100.00
2023-04-02T08:10:07.810Z,100.00
2023-04-02T08:12:35.452Z,100.00
2023-04-02T08:15:05.870Z,100.00
2023-04-02T08:17:33.663Z,100.00
2023-04-02T08:20:01.859Z,100.00
2023-04-02T08:22:29.963Z,100.00
2023-04-02T08:24:57.746Z,100.00
2023-04-02T08:27:25.487Z,100.00
2023-04-02T08:29:53.215Z,100.00
2023-04-02T08:32:24.173Z,98.99
2023-04-02T08:34:51.911Z,99.14
2023-04-02T08:37:19.613Z,98.38
2023-04-02T08:39:47.985Z,97.47
2023-04-02T08:42:23.892Z,97.90
2023-04-02T08:44:56.123Z,96.28
2023-04-02T08:47:29.969Z,96.13
2023-04-02T08:50:00.973Z,95.86
2023-04-02T08:52:30.164Z,94.98
2023-04-02T08:54:58.223Z,90.00
2023-04-02T08:57:33.175Z,86.04
2023-04-02T09:00:07.102Z,86.22
2023-04-02T09:02:40.671Z,84.65
2023-04-02T09:05:16.371Z,85.10
2023-04-02T09:07:44.119Z,83.42
2023-04-02T09:10:14.803Z,82.69
2023-04-02T09:12:44.236Z,82.28
2023-04-02T09:15:19.059Z,79.01
2023-04-02T09:17:54.013Z,80.61
2023-04-02T09:20:23.205Z,76.68
2023-04-02T09:22:52.071Z,73.36
2023-04-02T09:25:21.048Z,72.64
2023-04-02T09:27:49.627Z,71.51
2023-04-02T09:30:26.815Z,71.63
2023-04-02T09:32:57.049Z,71.01
2023-04-02T09:35:27.088Z,72.11
2023-04-02T09:38:12.638Z,71.27
2023-04-02T09:40:44.919Z,70.79
2023-04-02T09:43:13.793Z,70.73
2023-04-02T09:45:42.405Z,67.70
2023-04-02T09:48:24.203Z,69.74
2023-04-02T09:50:51.858Z,67.10
2023-04-02T09:53:31.031Z,66.39
2023-04-02T09:56:12.865Z,67.47
2023-04-02T09:58:40.660Z,70.56
2023-04-02T10:01:25.381Z,71.52
2023-04-02T10:03:54.498Z,67.06
2023-04-02T10:06:22.191Z,70.37
2023-04-02T10:08:52.148Z,71.40
2023-04-02T10:11:22.967Z,68.85
2023-04-02T10:13:53.807Z,69.80
2023-04-02T10:16:26.507Z,68.31
2023-04-02T10:18:58.329Z,69.51
2023-04-02T10:21:27.407Z,68.84
2023-04-02T10:23:55.197Z,69.81
2023-04-02T10:26:28.373Z,67.82
2023-04-02T10:29:15.699Z,68.04
2023-04-02T10:31:48.892Z,66.83
2023-04-02T10:34:22.379Z,66.94
2023-04-02T10:36:52.085Z,66.00
2023-04-02T10:39:21.694Z,64.76
2023-04-02T10:41:54.489Z,63.71
2023-04-02T10:44:26.700Z,62.81
2023-04-02T10:47:01.091Z,61.90
2023-04-02T10:49:39.100Z,64.82
2023-04-02T10:52:09.836Z,64.72
2023-04-02T10:54:41.071Z,62.02
2023-04-02T10:57:13.562Z,61.39
2023-04-02T10:59:43.792Z,61.83
2023-04-02T11:02:22.683Z,61.21
2023-04-02T11:04:53.955Z,62.67
2023-04-02T11:07:26.341Z,63.06
2023-04-02T11:09:57.240Z,65.46
2023-04-02T11:12:27.791Z,66.73
2023-04-02T11:14:56.972Z,67.49
2023-04-02T11:17:25.530Z,66.49
2023-04-02T11:19:56.143Z,63.12
2023-04-02T11:22:24.361Z,65.08
2023-04-02T11:24:53.048Z,66.33
2023-04-02T11:27:28.027Z,66.02
2023-04-02T11:30:00.846Z,67.33
2023-04-02T11:32:30.781Z,66.85
2023-04-02T11:35:07.008Z,67.41
2023-04-02T11:37:37.525Z,68.28
2023-04-02T11:40:28.543Z,66.51
2023-04-02T11:42:56.188Z,65.56
2023-04-02T11:45:51.934Z,65.76
2023-04-02T11:48:31.101Z,66.53
2023-04-02T11:51:04.622Z,63.17
2023-04-02T11:53:34.191Z,63.62
2023-04-02T11:56:09.627Z,64.69
2023-04-02T11:58:48.063Z,68.36
2023-04-02T12:01:30.973Z,66.88
2023-04-02T12:04:31.949Z,65.40
2023-04-02T12:07:10.664Z,67.04
2023-04-02T12:09:44.739Z,65.33
2023-04-02T12:12:19.658Z,67.43
2023-04-02T12:14:48.595Z,67.67
2023-04-02T12:17:22.689Z,68.46
2023-04-02T12:19:51.638Z,67.39
2023-04-02T12:22:22.769Z,67.20
2023-04-02T12:24:50.817Z,69.15
2023-04-02T12:27:22.570Z,66.64
2023-04-02T12:29:51.014Z,68.01
2023-04-02T12:32:22.430Z,68.64
2023-04-02T12:34:50.471Z,67.89
2023-04-02T12:37:22.731Z,67.22
2023-04-02T12:39:54.551Z,64.11
2023-04-02T12:42:29.291Z,65.47
2023-04-02T12:44:56.938Z,64.28
2023-04-02T12:47:24.745Z,63.58
2023-04-02T12:49:52.696Z,61.10
2023-04-02T12:52:21.777Z,62.06
2023-04-02T12:54:51.945Z,64.71
2023-04-02T12:57:24.325Z,65.58
2023-04-02T12:59:51.986Z,64.34
2023-04-02T13:02:21.152Z,64.55
2023-04-02T13:04:49.511Z,62.76
2023-04-02T13:07:18.493Z,65.05
2023-04-02T13:09:47.414Z,64.84
2023-04-02T13:12:26.261Z,66.84
2023-04-02T13:14:55.164Z,65.61
2023-04-02T13:17:39.189Z,69.17
2023-04-02T13:20:25.375Z,68.81
2023-04-02T13:22:53.037Z,68.18
2023-04-02T13:25:23.677Z,64.23
2023-04-02T13:27:53.852Z,68.93
2023-04-02T13:30:23.502Z,69.59
2023-04-02T13:32:51.217Z,70.40
2023-04-02T13:35:19.051Z,68.43
2023-04-02T13:37:46.736Z,68.30
2023-04-02T13:40:14.774Z,68.80
2023-04-02T13:42:43.154Z,66.44
2023-04-02T13:45:19.918Z,68.31
2023-04-02T13:47:47.669Z,67.37
2023-04-02T13:50:17.932Z,69.82
2023-04-02T13:52:45.752Z,67.78
2023-04-02T13:55:14.007Z,66.52
2023-04-02T13:57:41.738Z,67.54
2023-04-02T14:00:10.387Z,67.84
2023-04-02T14:02:43.702Z,69.21
2023-04-02T14:05:18.984Z,68.86
2023-04-02T14:07:51.685Z,69.91
2023-04-02T14:10:23.708Z,68.83
2023-04-02T14:13:02.838Z,69.00
2023-04-02T14:15:38.472Z,71.42
2023-04-02T14:18:15.113Z,72.67
2023-04-02T14:20:49.778Z,71.96
2023-04-02T14:23:26.762Z,71.31
2023-04-02T14:25:58.664Z,71.39
2023-04-02T14:28:38.011Z,70.83
2023-04-02T14:31:12.509Z,71.22
2023-04-02T14:33:47.500Z,72.52
2023-04-02T14:36:17.860Z,73.36
2023-04-02T14:38:51.940Z,74.09
2023-04-02T14:41:22.506Z,74.78
2023-04-02T14:43:53.194Z,73.81
2023-04-02T14:46:21.093Z,73.60
2023-04-02T14:48:54.548Z,73.70
2023-04-02T14:51:26.285Z,73.59
2023-04-02T14:53:59.305Z,73.90
2023-04-02T14:56:27.104Z,72.76
2023-04-02T14:58:57.745Z,72.56
2023-04-02T15:01:28.739Z,72.77
2023-04-02T15:04:02.225Z,74.58
2023-04-02T15:06:33.464Z,73.50
2023-04-02T15:09:09.324Z,69.57
2023-04-02T15:11:40.926Z,71.09
2023-04-02T15:14:13.944Z,71.58
2023-04-02T15:16:41.825Z,72.89
2023-04-02T15:19:13.875Z,72.74
2023-04-02T15:24:27.849Z,71.45
2023-04-02T15:26:59.991Z,70.43
2023-04-02T15:29:34.390Z,70.47
2023-04-02T15:32:05.217Z,70.29
2023-04-02T15:34:36.741Z,70.91
2023-04-02T15:37:08.411Z,71.83
2023-04-02T15:39:42.287Z,71.31
2023-04-02T15:42:14.546Z,69.89
2023-04-02T15:44:45.472Z,67.43
2023-04-02T15:47:17.175Z,69.33
2023-04-02T15:49:48.209Z,69.29
2023-04-02T15:52:18.434Z,71.07
2023-04-02T15:54:54.672Z,71.62
2023-04-02T15:57:32.318Z,74.19
2023-04-02T16:00:12.710Z,73.27
2023-04-02T16:02:44.798Z,73.91
2023-04-02T16:05:19.171Z,74.59
2023-04-02T16:08:02.262Z,74.82
2023-04-02T16:10:41.298Z,75.13
2023-04-02T16:13:14.644Z,75.11
2023-04-02T16:15:44.747Z,78.58
2023-04-02T16:18:16.767Z,78.68
2023-04-02T16:20:47.432Z,76.74
2023-04-02T16:23:16.542Z,77.27
2023-04-02T16:25:48.665Z,79.20
2023-04-02T16:28:19.738Z,78.79
2023-04-02T16:30:51.286Z,80.60
2023-04-02T16:33:25.486Z,77.71
2023-04-02T16:35:59.311Z,79.73
2023-04-02T16:38:39.942Z,79.42
2023-04-02T16:41:14.051Z,79.08
2023-04-02T16:43:47.331Z,79.18
2023-04-02T16:46:31.813Z,79.26
2023-04-02T16:49:10.325Z,81.10
2023-04-02T16:51:45.793Z,82.57
2023-04-02T16:54:17.352Z,82.25
2023-04-02T16:56:53.902Z,83.07
2023-04-02T16:59:26.456Z,82.68
2023-04-02T17:01:58.691Z,83.60
2023-04-02T17:04:47.332Z,83.24
2023-04-02T17:07:24.011Z,83.41
2023-04-02T17:09:52.890Z,83.50
2023-04-02T17:12:21.945Z,82.78
2023-04-02T17:14:52.128Z,81.79
2023-04-02T17:17:21.189Z,82.16
2023-04-02T17:19:51.384Z,82.47
2023-04-02T17:22:21.806Z,83.17
2023-04-02T17:24:53.812Z,83.00
2023-04-02T17:27:24.419Z,83.70
2023-04-02T17:29:53.813Z,84.63
2023-04-02T17:32:23.994Z,84.91
2023-04-02T17:34:51.712Z,85.48
2023-04-02T17:37:26.286Z,87.19
2023-04-02T17:39:56.848Z,87.78
2023-04-02T17:42:27.172Z,87.68
2023-04-02T17:45:02.341Z,88.01
2023-04-02T17:47:35.787Z,88.59
2023-04-02T17:50:30.385Z,88.51
2023-04-02T17:53:01.754Z,89.60
2023-04-02T17:55:37.867Z,89.10
2023-04-02T17:58:11.278Z,89.66
2023-04-02T18:00:46.747Z,90.06
2023-04-02T18:03:32.893Z,90.65
2023-04-02T18:06:01.626Z,91.46
2023-04-02T18:08:38.815Z,91.96
2023-04-02T18:11:10.561Z,92.46
2023-04-02T18:13:42.078Z,92.75
2023-04-02T18:16:23.034Z,93.06
2023-04-02T18:18:56.106Z,93.45
2023-04-02T18:21:25.907Z,93.62
2023-04-02T18:24:07.514Z,93.79
2023-04-02T18:26:39.853Z,93.97
2023-04-02T18:29:13.462Z,94.62
2023-04-02T18:31:46.334Z,95.15
2023-04-02T18:34:21.749Z,94.89
2023-04-02T18:36:55.282Z,95.45
2023-04-02T18:39:27.410Z,95.55
2023-04-02T18:42:01.407Z,96.42
2023-04-02T18:44:38.732Z,96.58
2023-04-02T18:47:11.540Z,96.77
2023-04-02T18:49:40.121Z,97.32
2023-04-02T18:52:12.077Z,97.30
2023-04-02T18:54:44.177Z,97.81
2023-04-02T18:57:14.194Z,97.75
2023-04-02T18:59:44.132Z,98.59
2023-04-02T19:02:23.453Z,98.12
2023-04-02T19:04:54.240Z,99.07
2023-04-02T19:07:22.455Z,99.44
2023-04-02T19:09:52.853Z,99.53
2023-04-02T19:12:22.133Z,99.06
2023-04-02T19:14:51.129Z,100.00
2023-04-02T19:17:26.510Z,99.76
2023-04-02T19:20:02.350Z,100.00
2023-04-02T19:22:33.577Z,100.00
2023-04-02T19:25:11.972Z,100.00
2023-04-02T19:27:48.069Z,100.00
2023-04-02T19:30:29.085Z,100.00
2023-04-02T19:33:00.228Z,100.00
2023-04-02T19:35:29.551Z,100.00
2023-04-02T19:38:00.551Z,100.00
2023-04-02T19:40:40.476Z,100.00
2023-04-02T19:43:10.162Z,100.00
2023-04-02T19:45:40.331Z,100.00
2023-04-02T19:48:13.126Z,100.00
2023-04-02T19:50:41.302Z,100.00
2023-04-02T19:53:09.788Z,100.00
2023-04-02T19:55:39.121Z,100.00
2023-04-02T19:58:18.783Z,100.00
2023-04-02T20:00:47.270Z,100.00
2023-04-02T20:03:15.054Z,100.00
2023-04-02T20:05:42.959Z,100.00
2023-04-02T20:08:11.089Z,100.00
2023-04-02T20:10:40.165Z,100.00
2023-04-02T20:13:08.175Z,100.00
2023-04-02T20:15:36.797Z,100.00
2023-04-02T20:18:05.665Z,100.00
2023-04-02T20:20:33.676Z,100.00
2023-04-02T20:23:01.515Z,100.00
2023-04-02T20:25:29.827Z,100.00
2023-04-02T20:28:00.940Z,100.00
2023-04-02T20:30:28.565Z,100.00
2023-04-02T20:32:59.018Z,100.00
2023-04-02T20:35:27.483Z,100.00
2023-04-02T20:37:55.142Z,100.00
2023-04-02T20:40:22.772Z,100.00
2023-04-02T20:42:52.759Z,100.00
2023-04-02T20:45:22.155Z,100.00
2023-04-02T20:47:49.813Z,100.00
2023-04-02T20:50:17.657Z,100.00
2023-04-02T20:52:45.267Z,100.00
2023-04-02T20:55:12.877Z,100.00
2023-04-02T20:57:40.570Z,100.00
2023-04-02T21:00:09.911Z,100.00
2023-04-02T21:02:39.101Z,100.00
2023-04-02T21:05:06.976Z,100.00
2023-04-02T21:07:34.669Z,100.00
2023-04-02T21:10:02.341Z,100.00
2023-04-02T21:12:30.041Z,100.00
2023-04-02T21:15:00.970Z,100.00
2023-04-02T21:17:30.502Z,100.00
2023-04-02T21:19:59.638Z,100.00
2023-04-02T21:22:27.365Z,100.00
2023-04-02T21:24:55.104Z,100.00
2023-04-02T21:27:25.726Z,100.00
2023-04-02T21:29:53.469Z,100.00
2023-04-02T21:32:22.190Z,100.00
2023-04-02T21:34:50.104Z,100.00
2023-04-02T21:37:19.110Z,100.00
2023-04-02T21:39:46.798Z,100.00
2023-04-02T21:42:15.224Z,100.00
2023-04-02T21:44:42.886Z,100.00
2023-04-02T21:47:10.770Z,100.00
2023-04-02T21:49:38.504Z,100.00
2023-04-02T21:52:06.364Z,100.00
2023-04-02T21:54:35.422Z,100.00
2023-04-02T21:57:03.169Z,100.00
2023-04-02T21:59:31.044Z,100.00
2023-04-02T22:01:58.751Z,100.00
2023-04-02T22:04:28.425Z,100.00
2023-04-02T22:06:56.245Z,100.00
2023-04-02T22:09:25.163Z,100.00
2023-04-02T22:11:55.589Z,100.00
2023-04-02T22:14:23.837Z,100.00
2023-04-02T22:16:51.889Z,100.00
2023-04-02T22:19:19.840Z,100.00
2023-04-02T22:21:47.544Z,100.00
2023-04-02T22:24:16.136Z,100.00
2023-04-02T22:26:44.388Z,100.00
2023-04-02T22:29:13.638Z,100.00
2023-04-02T22:31:41.549Z,100.00
2023-04-02T22:34:09.583Z,100.00
2023-04-02T22:36:37.267Z,100.00
2023-04-02T22:39:07.075Z,100.00
2023-04-02T22:41:35.584Z,100.00
2023-04-02T22:44:03.357Z,100.00
2023-04-02T22:46:32.601Z,100.00
2023-04-02T22:49:00.431Z,100.00
2023-04-02T22:51:28.724Z,100.00
2023-04-02T22:53:56.899Z,100.00
2023-04-02T22:56:26.214Z,100.00
2023-04-02T22:58:53.896Z,100.00
2023-04-02T23:01:22.818Z,100.00
2023-04-02T23:03:53.553Z,100.00
2023-04-02T23:06:21.562Z,100.00
2023-04-02T23:08:49.449Z,100.00
2023-04-02T23:11:18.171Z,100.00
2023-04-02T23:13:46.495Z,100.00
2023-04-02T23:16:14.989Z,100.00
2023-04-02T23:18:43.324Z,100.00
2023-04-02T23:21:12.450Z,100.00
2023-04-02T23:23:40.106Z,100.00
2023-04-02T23:26:08.877Z,100.00
2023-04-02T23:28:36.978Z,100.00
2023-04-02T23:31:05.579Z,100.00
2023-04-02T23:33:33.466Z,100.00
2023-04-02T23:36:01.206Z,100.00
2023-04-02T23:38:30.340Z,100.00
2023-04-02T23:40:57.996Z,100.00
2023-04-02T23:43:25.877Z,100.00
2023-04-02T23:45:53.493Z,100.00
2023-04-02T23:48:21.172Z,100.00
2023-04-02T23:50:48.792Z,100.00
2023-04-02T23:53:16.490Z,100.00
2023-04-02T23:55:45.867Z,100.00
2023-04-02T23:58:13.546Z,100.00
